Time;durP1;ratioP1;P1;durP2;ratioP2;P2;SDS_P1;SDS_P2;PMS_P1;PMS_P2;Temp;Humidity;BMP_temperature;BMP_pressure;BME280_temperature;BME280_humidity;BME280_pressure;Samples;Min_cycle;Max_cycle;Signal;HPM_P1;HPM_P2
2021/05/06 00:02:31;;;;;;;2.27;1.63;;;6.60;99.90;;;;;;5125062;28;20404;-84
2021/05/06 00:05:19;;;;;;;4.80;2.07;;;6.50;99.90;;;;;;5124345;28;20521;-84
2021/05/06 00:10:57;;;;;;;1.30;1.20;;;6.40;99.90;;;;;;5125151;28;20414;-83
2021/05/06 00:32:15;;;;;;;1.40;1.30;;;6.20;99.90;;;;;;5121771;28;20396;-83
2021/05/06 00:34:41;;;;;;;1.60;1.50;;;5.90;99.90;;;;;;5103687;28;20439;-83
2021/05/06 00:37:08;;;;;;;1.50;1.40;;;6.10;99.90;;;;;;5121358;28;20412;-82
2021/05/06 00:39:41;;;;;;;1.80;1.70;;;6.00;99.90;;;;;;5121624;28;20388;-82
2021/05/06 00:42:24;;;;;;;1.50;1.40;;;6.20;99.90;;;;;;5121196;28;20403;-82
2021/05/06 00:45:30;;;;;;;2.33;1.50;;;6.00;99.90;;;;;;5120420;28;20459;-85
2021/05/06 00:56:04;;;;;;;2.00;1.80;;;6.10;99.90;;;;;;5121280;28;20400;-84
2021/05/06 00:58:45;;;;;;;2.33;2.13;;;5.90;99.90;;;;;;5120763;28;20447;-84
2021/05/06 01:01:39;;;;;;;1.43;1.33;;;5.90;99.90;;;;;;5120090;28;20407;-84
2021/05/06 01:04:23;;;;;;;1.53;1.43;;;5.60;99.90;;;;;;5105869;28;20951;-83
2021/05/06 01:09:22;;;;;;;2.00;1.80;;;6.00;99.90;;;;;;5120640;28;20430;-84
2021/05/06 01:11:56;;;;;;;3.17;2.40;;;5.80;99.90;;;;;;5102906;28;20440;-84
2021/05/06 01:14:22;;;;;;;10.40;3.03;;;6.00;99.90;;;;;;5120379;28;20431;-84
2021/05/06 01:16:48;;;;;;;2.83;2.63;;;5.80;99.90;;;;;;5120650;28;20413;-84
2021/05/06 01:19:14;;;;;;;1.93;1.73;;;5.70;99.90;;;;;;5120128;28;20899;-84
2021/05/06 01:21:40;;;;;;;1.90;1.80;;;5.70;99.90;;;;;;5120165;28;20614;-84
2021/05/06 01:24:07;;;;;;;1.93;1.60;;;5.60;99.90;;;;;;5120001;28;20739;-84
2021/05/06 01:26:37;;;;;;;2.40;1.40;;;5.60;99.90;;;;;;5121009;28;20403;-84
2021/05/06 01:29:10;;;;;;;2.90;1.63;;;5.50;99.90;;;;;;5120720;28;20391;-84
2021/05/06 01:31:39;;;;;;;2.87;2.07;;;5.70;99.90;;;;;;5119859;28;20392;-84
2021/05/06 01:34:17;;;;;;;1.70;1.60;;;5.70;99.90;;;;;;5119488;28;20451;-84
2021/05/06 01:39:43;;;;;;;3.10;2.60;;;5.50;99.90;;;;;;5119840;28;20859;-84
2021/05/06 01:42:15;;;;;;;1.83;1.73;;;5.50;99.90;;;;;;5120349;28;20399;-84
2021/05/06 01:45:03;;;;;;;2.20;2.00;;;5.60;99.90;;;;;;5119849;28;20516;-84
2021/05/06 01:47:34;;;;;;;2.60;2.00;;;5.70;99.90;;;;;;5119310;28;20426;-84
2021/05/06 01:50:16;;;;;;;2.03;1.83;;;5.70;99.90;;;;;;5119948;28;20441;-84
2021/05/06 01:58:05;;;;;;;2.10;1.90;;;5.40;99.90;;;;;;5119819;28;20431;-84
2021/05/06 02:00:37;;;;;;;1.73;1.63;;;5.10;99.90;;;;;;5120667;28;20393;-84
2021/05/06 02:03:04;;;;;;;2.37;2.17;;;5.30;99.90;;;;;;5120208;28;20384;-84
2021/05/06 02:05:30;;;;;;;2.07;1.87;;;5.30;99.90;;;;;;5120286;28;20426;-84
2021/05/06 02:07:56;;;;;;;2.97;2.30;;;5.30;99.90;;;;;;5120745;28;20428;-84
2021/05/06 02:10:26;;;;;;;1.97;1.87;;;5.40;99.90;;;;;;5121203;28;20460;-83
2021/05/06 02:12:52;;;;;;;1.80;1.50;;;5.60;99.90;;;;;;5139233;28;20160;-84
2021/05/06 02:15:26;;;;;;;3.40;3.10;;;5.50;99.90;;;;;;5139103;28;20443;-84
2021/05/06 02:17:54;;;;;;;2.53;2.10;;;5.40;99.90;;;;;;5138907;28;20459;-83
2021/05/06 02:20:19;;;;;;;2.43;2.23;;;5.30;99.90;;;;;;5138899;28;20390;-84
2021/05/06 02:22:47;;;;;;;1.93;1.70;;;5.50;99.90;;;;;;5125038;28;20419;-84
2021/05/06 02:25:14;;;;;;;4.87;3.17;;;5.60;99.90;;;;;;5120060;28;20154;-84
2021/05/06 02:27:39;;;;;;;2.47;1.80;;;5.60;99.90;;;;;;5120463;28;20537;-84
2021/05/06 02:30:06;;;;;;;4.70;2.83;;;5.70;99.90;;;;;;5120207;28;20435;-83
2021/05/06 02:32:32;;;;;;;6.37;2.57;;;5.50;99.90;;;;;;5121066;28;20180;-84
2021/05/06 02:34:58;;;;;;;3.00;2.30;;;5.40;99.90;;;;;;5122587;28;20448;-84
2021/05/06 02:37:25;;;;;;;3.17;1.93;;;5.50;99.90;;;;;;5136990;28;20170;-83
2021/05/06 02:39:51;;;;;;;4.73;2.30;;;5.40;99.90;;;;;;5128242;28;20399;-84
2021/05/06 02:42:17;;;;;;;3.87;2.97;;;5.40;99.90;;;;;;5104626;28;20875;-84
2021/05/06 02:44:42;;;;;;;5.73;3.13;;;5.50;99.90;;;;;;5123549;28;20511;-85
2021/05/06 02:47:08;;;;;;;3.40;3.10;;;5.60;99.90;;;;;;5105924;28;20164;-84
2021/05/06 02:49:36;;;;;;;8.73;3.90;;;5.60;99.90;;;;;;5107794;28;20165;-84
2021/05/06 02:52:07;;;;;;;4.43;2.97;;;5.60;99.90;;;;;;5126889;28;20447;-84
2021/05/06 02:54:39;;;;;;;3.77;2.90;;;5.80;99.90;;;;;;5124884;28;20454;-84
2021/05/06 02:57:16;;;;;;;6.10;3.40;;;5.70;99.90;;;;;;5135178;28;20491;-86
2021/05/06 03:02:49;;;;;;;2.10;2.00;;;5.70;99.90;;;;;;5124968;28;20367;-84
2021/05/06 03:05:09;;;;;;;2.13;1.93;;;5.50;99.90;;;;;;5109698;28;20416;-84
2021/05/06 03:07:37;;;;;;;1.90;1.80;;;5.40;99.90;;;;;;5087652;28;20441;-84
2021/05/06 03:13:14;;;;;;;2.80;2.27;;;5.80;99.90;;;;;;5119252;28;20394;-84
2021/05/06 03:23:34;;;;;;;2.57;2.03;;;5.60;99.90;;;;;;5118484;28;20391;-84
2021/05/06 03:26:00;;;;;;;3.77;2.60;;;5.40;99.90;;;;;;5118669;28;20468;-84
2021/05/06 03:28:30;;;;;;;1.90;1.80;;;5.40;99.90;;;;;;5118626;28;20201;-84
2021/05/06 03:31:12;;;;;;;2.40;1.87;;;5.40;99.90;;;;;;5119361;28;20158;-84
2021/05/06 03:41:41;;;;;;;2.63;2.40;;;5.40;99.90;;;;;;5118532;28;20419;-84
2021/05/06 03:44:27;;;;;;;2.10;1.90;;;5.70;99.90;;;;;;5117817;28;20998;-84
2021/05/06 03:47:17;;;;;;;4.07;2.40;;;5.70;99.90;;;;;;5122320;28;20428;-84
2021/05/06 03:50:03;;;;;;;4.13;2.10;;;5.60;99.90;;;;;;5123235;28;20461;-84
2021/05/06 04:16:42;;;;;;;8.50;3.70;;;6.20;99.90;;;;;;5127921;27;20770;-84
2021/05/06 04:21:31;;;;;;;3.30;2.50;;;6.10;99.90;;;;;;5143031;27;20402;-84
2021/05/06 04:22:21;;;;;;;3.27;2.97;;;6.00;99.90;;;;;;5142328;27;20458;-85
2021/05/06 04:27:25;;;;;;;5.53;2.90;;;6.20;99.90;;;;;;5142072;27;20395;-84
2021/05/06 04:30:14;;;;;;;2.57;2.40;;;6.20;99.90;;;;;;5143619;27;20836;-84
2021/05/06 04:35:37;;;;;;;3.17;2.43;;;6.40;99.90;;;;;;5142898;27;20446;-84
2021/05/06 04:38:08;;;;;;;2.33;2.13;;;6.20;99.90;;;;;;5142653;27;20473;-84
2021/05/06 04:46:12;;;;;;;2.40;2.20;;;6.20;99.90;;;;;;5125964;27;20383;-84
2021/05/06 04:54:21;;;;;;;4.57;2.20;;;6.60;99.90;;;;;;5149581;27;20446;-84
2021/05/06 04:57:06;;;;;;;2.10;1.70;;;6.30;99.90;;;;;;5149694;27;20383;-85
2021/05/06 05:04:54;;;;;;;2.10;1.90;;;6.50;99.90;;;;;;5142311;27;20399;-85
2021/05/06 05:07:24;;;;;;;3.03;1.50;;;6.50;99.90;;;;;;5142168;27;20502;-85
2021/05/06 05:10:05;;;;;;;5.23;2.00;;;6.70;99.90;;;;;;5142477;27;20425;-85
2021/05/06 05:18:03;;;;;;;3.10;2.80;;;6.70;99.90;;;;;;5094919;27;20429;-85
2021/05/06 05:20:49;;;;;;;3.33;2.40;;;6.90;99.90;;;;;;5125991;27;20365;-84
2021/05/06 05:26:02;;;;;;;3.80;2.53;;;6.90;99.90;;;;;;5144578;27;20436;-85
2021/05/06 05:28:29;;;;;;;8.33;3.17;;;7.20;99.90;;;;;;5145009;27;20391;-85
2021/05/06 05:30:55;;;;;;;2.80;2.00;;;7.30;99.90;;;;;;5144819;27;20894;-85
2021/05/06 05:33:23;;;;;;;2.43;2.23;;;7.20;99.90;;;;;;5127150;27;20399;-85
2021/05/06 05:35:57;;;;;;;2.70;2.10;;;7.50;99.90;;;;;;5145083;27;20380;-85
2021/05/06 05:38:49;;;;;;;3.17;2.00;;;7.70;99.90;;;;;;5112547;27;20417;-85
2021/05/06 05:41:33;;;;;;;1.90;1.80;;;7.80;99.90;;;;;;5145584;27;20422;-85
2021/05/06 05:54:50;;;;;;;2.63;1.90;;;7.20;99.90;;;;;;5147493;27;20445;-84
2021/05/06 05:57:15;;;;;;;3.47;2.47;;;7.10;99.90;;;;;;5155898;27;20395;-85
2021/05/06 05:59:41;;;;;;;3.93;3.40;;;7.40;99.90;;;;;;5144618;27;20402;-84
2021/05/06 06:02:07;;;;;;;2.20;2.00;;;7.60;99.90;;;;;;5150621;27;20158;-84
2021/05/06 06:04:34;;;;;;;3.30;2.47;;;7.30;99.90;;;;;;5144650;27;20407;-84
2021/05/06 06:07:00;;;;;;;3.00;2.17;;;7.00;99.90;;;;;;5150203;27;20184;-84
2021/05/06 06:09:26;;;;;;;2.40;1.80;;;7.00;99.90;;;;;;5151977;27;20442;-83
2021/05/06 06:11:51;;;;;;;3.00;2.70;;;7.00;99.90;;;;;;5140539;27;20162;-83
2021/05/06 06:14:23;;;;;;;2.13;1.93;;;7.40;99.90;;;;;;5141016;27;20554;-83
2021/05/06 06:16:49;;;;;;;2.70;1.80;;;7.50;99.90;;;;;;5141716;27;20523;-83
2021/05/06 06:19:17;;;;;;;4.70;2.43;;;7.70;99.90;;;;;;5153806;27;20506;-83
2021/05/06 06:21:51;;;;;;;2.53;2.33;;;7.40;99.90;;;;;;5143473;27;20421;-83
2021/05/06 06:24:19;;;;;;;3.00;1.77;;;7.20;99.90;;;;;;5145629;27;20401;-83
2021/05/06 06:26:45;;;;;;;4.27;2.47;;;7.30;99.90;;;;;;5121290;27;20416;-83
2021/05/06 06:29:15;;;;;;;2.43;2.20;;;7.70;99.90;;;;;;5140044;27;20426;-83
2021/05/06 06:31:42;;;;;;;1.67;1.57;;;7.90;99.90;;;;;;5117071;27;20402;-83
2021/05/06 06:34:08;;;;;;;2.83;2.60;;;7.70;99.90;;;;;;5113119;27;20473;-81
2021/05/06 06:36:35;;;;;;;3.00;2.40;;;7.80;99.90;;;;;;5130869;27;20687;-82
2021/05/06 06:39:03;;;;;;;4.60;2.93;;;7.80;99.90;;;;;;5150240;27;20434;-81
2021/05/06 06:41:28;;;;;;;3.43;3.13;;;7.70;99.90;;;;;;5132376;27;20879;-82
2021/05/06 06:44:02;;;;;;;13.30;2.43;;;7.90;99.90;;;;;;5131163;27;20547;-83
2021/05/06 06:46:30;;;;;;;2.70;1.90;;;7.70;99.90;;;;;;5133963;27;20264;-83
2021/05/06 06:48:58;;;;;;;2.20;1.73;;;7.60;99.90;;;;;;5060414;28;20441;-82
2021/05/06 06:51:24;;;;;;;3.53;2.57;;;7.70;99.90;;;;;;5059478;28;20416;-83
2021/05/06 06:53:51;;;;;;;4.00;1.57;;;7.60;99.90;;;;;;5071562;28;20508;-81
2021/05/06 06:56:18;;;;;;;1.73;1.63;;;7.60;99.90;;;;;;5076857;28;20949;-84
2021/05/06 06:58:48;;;;;;;3.70;2.20;;;7.60;99.90;;;;;;5077304;28;20491;-82
2021/05/06 07:01:14;;;;;;;10.13;1.93;;;7.60;99.90;;;;;;5078149;28;20926;-83
2021/05/06 07:03:40;;;;;;;2.80;1.90;;;7.60;99.90;;;;;;5060723;28;20848;-85
2021/05/06 07:06:07;;;;;;;2.10;1.90;;;7.60;99.90;;;;;;5075310;28;20429;-84
2021/05/06 07:08:38;;;;;;;1.70;1.60;;;7.90;99.90;;;;;;5016569;28;20283;-84
2021/05/06 07:11:06;;;;;;;2.43;2.10;;;7.90;99.90;;;;;;5035631;28;20529;-84
2021/05/06 07:13:32;;;;;;;1.90;1.80;;;7.90;99.90;;;;;;5043017;28;20505;-84
2021/05/06 07:16:03;;;;;;;2.43;1.97;;;7.80;99.90;;;;;;5078281;28;20412;-83
2021/05/06 07:18:31;;;;;;;2.57;2.23;;;7.90;99.90;;;;;;5075287;28;20425;-84
2021/05/06 07:20:58;;;;;;;4.40;4.00;;;7.90;99.90;;;;;;5074400;28;20421;-84
2021/05/06 07:23:25;;;;;;;3.50;2.00;;;7.90;99.90;;;;;;5075961;28;20421;-84
2021/05/06 07:26:06;;;;;;;4.47;2.40;;;7.80;99.90;;;;;;5048078;28;20406;-83
2021/05/06 07:28:37;;;;;;;1.70;1.60;;;7.90;99.90;;;;;;5026864;28;20422;-83
2021/05/06 07:31:04;;;;;;;4.43;2.37;;;7.80;99.90;;;;;;5067242;28;20421;-83
2021/05/06 07:33:31;;;;;;;1.60;1.50;;;7.70;99.90;;;;;;5077270;28;20420;-83
2021/05/06 07:35:59;;;;;;;3.57;2.07;;;7.70;99.90;;;;;;5076761;28;20809;-83
2021/05/06 07:38:30;;;;;;;2.00;1.90;;;7.30;99.90;;;;;;5062044;28;20419;-83
2021/05/06 07:40:59;;;;;;;1.73;1.63;;;7.40;99.90;;;;;;5127669;27;20470;-84
2021/05/06 07:43:29;;;;;;;2.30;1.70;;;7.50;99.90;;;;;;5122267;27;20477;-83
2021/05/06 07:45:58;;;;;;;4.20;2.00;;;7.60;99.90;;;;;;5104327;28;20416;-84
2021/05/06 07:48:27;;;;;;;3.73;2.53;;;7.30;99.90;;;;;;5122612;27;20427;-84
2021/05/06 07:50:53;;;;;;;7.30;1.97;;;7.40;99.90;;;;;;5095012;28;20443;-83
2021/05/06 07:53:25;;;;;;;3.07;2.40;;;6.90;99.90;;;;;;5104790;28;20422;-84
2021/05/06 07:55:53;;;;;;;2.60;1.97;;;7.10;99.90;;;;;;5122681;28;20416;-84
2021/05/06 07:58:19;;;;;;;1.77;1.67;;;7.00;99.90;;;;;;5123354;27;20451;-84
2021/05/06 08:00:45;;;;;;;10.20;1.70;;;6.90;99.90;;;;;;5111762;27;20446;-84
2021/05/06 08:03:11;;;;;;;2.90;2.27;;;6.80;99.90;;;;;;5092635;28;20427;-84
2021/05/06 08:05:38;;;;;;;3.23;2.77;;;7.00;99.90;;;;;;5118528;28;20441;-84
2021/05/06 08:08:05;;;;;;;2.40;2.20;;;7.30;99.90;;;;;;5123982;28;20210;-84
2021/05/06 08:10:31;;;;;;;2.50;2.30;;;7.50;99.90;;;;;;5126468;27;20431;-84
2021/05/06 08:12:58;;;;;;;3.00;2.37;;;7.40;99.90;;;;;;5126690;28;20448;-84
2021/05/06 08:15:25;;;;;;;5.00;2.10;;;7.60;99.90;;;;;;5118656;28;20475;-83
2021/05/06 08:17:51;;;;;;;2.57;1.77;;;7.60;99.90;;;;;;5132156;27;20451;-84
2021/05/06 08:20:19;;;;;;;7.10;2.47;;;7.60;99.90;;;;;;5121950;28;20396;-82
2021/05/06 08:22:45;;;;;;;3.80;2.20;;;7.50;99.90;;;;;;5139576;27;20416;-83
2021/05/06 08:25:13;;;;;;;2.20;2.10;;;7.50;99.90;;;;;;5121615;28;20399;-83
2021/05/06 08:27:41;;;;;;;2.23;1.60;;;7.20;99.90;;;;;;5128283;28;20446;-84
2021/05/06 08:30:08;;;;;;;4.43;2.37;;;7.30;99.90;;;;;;5122457;28;20408;-84
2021/05/06 08:32:34;;;;;;;3.43;2.53;;;7.30;99.90;;;;;;5103422;28;20423;-83
2021/05/06 08:35:01;;;;;;;6.20;1.90;;;7.60;99.90;;;;;;5084623;28;20440;-83
2021/05/06 08:37:27;;;;;;;2.10;1.90;;;7.80;99.90;;;;;;5086815;28;20767;-83
2021/05/06 08:39:53;;;;;;;4.53;1.70;;;7.40;99.90;;;;;;5121280;28;20416;-84
2021/05/06 08:42:19;;;;;;;2.20;1.77;;;7.40;99.90;;;;;;5120759;27;20205;-84
2021/05/06 08:44:55;;;;;;;1.90;1.80;;;7.20;99.90;;;;;;5101769;28;20482;-85
2021/05/06 08:47:23;;;;;;;1.97;1.77;;;7.50;99.90;;;;;;5095913;27;20778;-85
2021/05/06 08:49:50;;;;;;;2.10;1.90;;;7.50;99.90;;;;;;5121524;28;20469;-83
2021/05/06 08:52:23;;;;;;;2.27;1.67;;;7.40;99.90;;;;;;5071009;28;20416;-86
2021/05/06 08:54:51;;;;;;;2.13;2.00;;;7.40;99.90;;;;;;5103689;28;20439;-83
2021/05/06 08:57:20;;;;;;;1.70;1.60;;;7.40;99.90;;;;;;5100660;28;20422;-83
2021/05/06 08:59:46;;;;;;;4.13;2.13;;;7.40;99.90;;;;;;5115304;28;20412;-84
2021/05/06 09:02:12;;;;;;;2.53;1.97;;;7.30;99.90;;;;;;5113869;28;20404;-83
2021/05/06 09:04:41;;;;;;;4.27;1.43;;;7.30;99.90;;;;;;5131900;27;20477;-84
2021/05/06 09:07:10;;;;;;;2.47;2.13;;;7.30;99.90;;;;;;5124017;28;20166;-86
2021/05/06 09:09:47;;;;;;;1.57;1.47;;;7.30;99.90;;;;;;5117864;28;20751;-85
2021/05/06 09:12:13;;;;;;;1.53;1.33;;;7.30;99.90;;;;;;5065760;28;20433;-84
2021/05/06 09:14:46;;;;;;;2.13;1.93;;;7.30;99.90;;;;;;5032553;28;20464;-84
2021/05/06 09:17:26;;;;;;;3.13;2.30;;;7.30;99.90;;;;;;5074312;28;20903;-84
2021/05/06 09:20:15;;;;;;;1.90;1.73;;;7.20;99.90;;;;;;5078026;28;20471;-86
2021/05/06 09:22:44;;;;;;;2.67;2.47;;;7.30;99.90;;;;;;5069683;28;20422;-84
2021/05/06 09:25:36;;;;;;;2.00;1.90;;;7.40;99.90;;;;;;5077781;28;20451;-87
2021/05/06 09:28:06;;;;;;;1.77;1.67;;;7.40;99.90;;;;;;5061665;28;20417;-84
2021/05/06 09:30:34;;;;;;;2.80;1.80;;;7.50;99.90;;;;;;5082369;28;20474;-84
2021/05/06 09:33:01;;;;;;;2.27;2.10;;;6.70;99.90;;;;;;5078814;28;20425;-86
2021/05/06 09:35:28;;;;;;;1.90;1.80;;;6.60;99.90;;;;;;5061950;28;20441;-84
2021/05/06 09:38:37;;;;;;;1.40;1.30;;;6.90;99.90;;;;;;5087365;28;20421;-84
2021/05/06 09:41:28;;;;;;;1.90;1.60;;;7.00;99.90;;;;;;5040522;28;20906;-84
2021/05/06 09:43:54;;;;;;;1.70;1.60;;;7.00;99.90;;;;;;5066923;27;21123;-84
2021/05/06 09:46:31;;;;;;;2.10;1.60;;;6.30;99.90;;;;;;5124526;27;20413;-84
2021/05/06 09:49:05;;;;;;;3.30;1.70;;;6.80;99.90;;;;;;5086894;27;20434;-84
2021/05/06 09:51:51;;;;;;;3.93;2.07;;;6.50;99.90;;;;;;5094090;28;20420;-84
2021/05/06 09:54:25;;;;;;;2.77;2.00;;;6.30;99.90;;;;;;5107084;28;20444;-85
2021/05/06 09:57:07;;;;;;;6.20;2.00;;;6.10;99.90;;;;;;5125691;27;20416;-84
2021/05/06 09:59:37;;;;;;;2.13;1.93;;;6.10;99.90;;;;;;5111623;27;20454;-85
2021/05/06 10:02:13;;;;;;;5.90;1.87;;;6.40;99.90;;;;;;5123733;27;20460;-84
2021/05/06 10:04:43;;;;;;;7.03;2.43;;;6.80;99.90;;;;;;5113110;28;20958;-83
2021/05/06 10:07:25;;;;;;;1.80;1.60;;;6.70;99.90;;;;;;5107996;28;20423;-84
2021/05/06 10:09:56;;;;;;;2.60;2.40;;;6.80;99.90;;;;;;5102873;27;20755;-86
2021/05/06 10:12:27;;;;;;;2.67;2.00;;;7.10;99.90;;;;;;5098420;27;20471;-85
2021/05/06 10:14:54;;;;;;;2.67;2.17;;;7.10;99.90;;;;;;5088890;27;20447;-85
2021/05/06 10:17:21;;;;;;;2.60;2.40;;;7.20;99.90;;;;;;5134508;27;20972;-85
2021/05/06 10:19:47;;;;;;;6.50;2.03;;;7.20;99.90;;;;;;5081719;28;20441;-86
2021/05/06 10:22:16;;;;;;;2.70;2.50;;;6.90;99.90;;;;;;5135464;27;20414;-86
2021/05/06 10:24:45;;;;;;;3.13;1.93;;;7.20;99.90;;;;;;5134789;27;20184;-85
2021/05/06 10:27:13;;;;;;;1.97;1.77;;;7.30;99.90;;;;;;5135295;27;20463;-84
2021/05/06 10:29:42;;;;;;;4.30;2.20;;;7.30;99.90;;;;;;5075627;27;20706;-85
2021/05/06 10:32:13;;;;;;;2.43;1.90;;;7.40;99.90;;;;;;5101383;28;20610;-85
2021/05/06 10:34:40;;;;;;;2.03;1.83;;;7.50;99.90;;;;;;5084547;28;20455;-85
2021/05/06 10:37:07;;;;;;;2.90;2.03;;;7.60;99.90;;;;;;5118353;27;20419;-85
2021/05/06 10:39:47;;;;;;;3.13;2.80;;;6.70;99.90;;;;;;5089492;28;20421;-86
2021/05/06 10:42:32;;;;;;;2.57;2.10;;;6.80;99.90;;;;;;5107622;28;20437;-87
2021/05/06 10:45:01;;;;;;;3.50;2.37;;;6.90;99.90;;;;;;5081285;28;20471;-86
2021/05/06 10:47:56;;;;;;;3.77;2.60;;;6.60;99.90;;;;;;5096466;28;20417;-84
2021/05/06 10:50:46;;;;;;;4.33;2.60;;;6.50;99.90;;;;;;5093234;28;20523;-86
2021/05/06 10:53:27;;;;;;;4.83;2.03;;;6.50;99.90;;;;;;5094635;28;20901;-86
2021/05/06 10:55:58;;;;;;;2.53;2.33;;;6.70;99.90;;;;;;5073668;28;20424;-86
2021/05/06 10:58:39;;;;;;;3.50;2.23;;;7.00;99.90;;;;;;5097274;28;20421;-86
2021/05/06 11:01:17;;;;;;;3.50;2.70;;;7.20;99.90;;;;;;5099296;28;20776;-86
2021/05/06 11:03:44;;;;;;;2.63;2.40;;;7.50;99.90;;;;;;5077115;28;20439;-86
2021/05/06 11:06:36;;;;;;;3.70;1.90;;;7.70;99.90;;;;;;5094619;28;20420;-85
2021/05/06 11:09:02;;;;;;;4.63;1.83;;;8.00;99.90;;;;;;5116146;28;20451;-85
2021/05/06 11:11:28;;;;;;;3.30;2.33;;;8.10;99.90;;;;;;5115676;28;20815;-85
2021/05/06 11:14:05;;;;;;;3.10;2.80;;;8.10;99.90;;;;;;5111306;28;20470;-86
2021/05/06 11:16:31;;;;;;;2.00;1.90;;;8.30;99.90;;;;;;5110668;28;20445;-85
2021/05/06 11:19:00;;;;;;;6.17;2.20;;;8.20;99.90;;;;;;5110569;28;20452;-86
2021/05/06 11:21:36;;;;;;;2.70;2.40;;;7.60;99.90;;;;;;5123015;28;20408;-85
2021/05/06 11:24:17;;;;;;;4.70;2.23;;;6.90;99.90;;;;;;5091085;28;20381;-85
2021/05/06 11:27:10;;;;;;;7.17;4.03;;;7.20;99.90;;;;;;5124119;28;20424;-85
2021/05/06 11:29:38;;;;;;;3.50;1.77;;;7.10;99.90;;;;;;5094389;28;20746;-85
2021/05/06 11:32:06;;;;;;;1.83;1.73;;;6.90;99.90;;;;;;5117763;28;20444;-85
2021/05/06 11:34:37;;;;;;;2.67;2.23;;;7.10;99.90;;;;;;5102330;28;20514;-85
2021/05/06 11:37:16;;;;;;;6.37;2.47;;;7.00;99.90;;;;;;5081452;28;20408;-85
2021/05/06 11:40:02;;;;;;;2.50;2.13;;;7.20;99.90;;;;;;5119148;28;20498;-84
2021/05/06 11:42:36;;;;;;;3.23;2.77;;;7.40;99.90;;;;;;5115955;28;20404;-85
2021/05/06 11:45:21;;;;;;;2.93;2.43;;;7.90;99.90;;;;;;5123308;28;20467;-85
2021/05/06 11:47:48;;;;;;;3.10;2.80;;;8.30;99.90;;;;;;5122745;28;20426;-85
2021/05/06 11:50:18;;;;;;;2.23;2.10;;;8.00;99.90;;;;;;5123308;28;20973;-85
2021/05/06 11:52:43;;;;;;;4.17;2.67;;;8.30;99.90;;;;;;5104522;28;20433;-85
2021/05/06 11:55:25;;;;;;;2.60;2.40;;;8.40;99.90;;;;;;5123563;28;20527;-84
2021/05/06 11:57:50;;;;;;;3.83;2.63;;;8.10;99.90;;;;;;5104768;28;20404;-85
2021/05/06 12:00:23;;;;;;;3.33;2.60;;;7.90;99.90;;;;;;5100695;28;20430;-85
2021/05/06 12:02:55;;;;;;;5.50;2.57;;;8.00;99.90;;;;;;5021771;28;20220;-85
2021/05/06 12:05:23;;;;;;;2.90;1.90;;;7.80;99.90;;;;;;5024311;28;20899;-85
2021/05/06 12:08:04;;;;;;;3.33;2.27;;;7.90;99.90;;;;;;5024893;28;20458;-85
2021/05/06 12:10:39;;;;;;;3.20;2.37;;;8.00;99.90;;;;;;5023162;28;20426;-85
2021/05/06 12:13:05;;;;;;;2.20;2.10;;;8.40;99.90;;;;;;4994548;28;20434;-85
2021/05/06 12:15:30;;;;;;;8.00;2.43;;;8.30;99.90;;;;;;5034442;28;20523;-85
2021/05/06 12:18:15;;;;;;;2.30;2.10;;;8.60;99.90;;;;;;5022450;28;20216;-84
2021/05/06 12:20:51;;;;;;;6.10;2.30;;;8.50;99.90;;;;;;5016560;28;20609;-84
2021/05/06 12:23:16;;;;;;;2.37;2.07;;;8.30;99.90;;;;;;5046416;28;20565;-85
2021/05/06 12:25:42;;;;;;;2.57;2.03;;;8.40;99.90;;;;;;5040375;28;20440;-85
2021/05/06 12:28:08;;;;;;;2.27;2.07;;;8.10;99.90;;;;;;5037365;28;20199;-85
2021/05/06 12:30:34;;;;;;;2.43;2.23;;;8.20;99.90;;;;;;5033362;28;20392;-85
2021/05/06 12:33:00;;;;;;;2.13;1.93;;;8.00;99.90;;;;;;5060940;28;20444;-85
2021/05/06 12:35:26;;;;;;;3.00;2.20;;;8.20;99.90;;;;;;5129093;28;20193;-85
2021/05/06 12:37:57;;;;;;;2.60;2.40;;;8.50;99.90;;;;;;5106226;28;20458;-85
2021/05/06 12:40:27;;;;;;;3.00;2.03;;;8.30;99.90;;;;;;5087447;28;20171;-84
2021/05/06 12:42:53;;;;;;;4.10;2.27;;;8.50;99.90;;;;;;5075792;28;20450;-84
2021/05/06 12:45:26;;;;;;;2.60;2.40;;;8.50;99.90;;;;;;5097386;28;20479;-84
2021/05/06 12:47:55;;;;;;;4.70;2.40;;;8.60;99.90;;;;;;5071186;28;20786;-84
2021/05/06 12:50:26;;;;;;;2.93;2.47;;;8.60;99.90;;;;;;5066707;28;20463;-86
2021/05/06 12:52:55;;;;;;;4.23;3.10;;;9.00;99.90;;;;;;5066721;28;20452;-86
2021/05/06 12:55:27;;;;;;;3.00;2.60;;;8.90;99.90;;;;;;5099014;28;20531;-86
2021/05/06 12:58:14;;;;;;;5.63;2.60;;;8.80;99.90;;;;;;5097819;28;20427;-86
2021/05/06 13:00:42;;;;;;;2.53;2.33;;;8.70;99.90;;;;;;5099943;28;20901;-86
2021/05/06 13:03:10;;;;;;;3.37;2.80;;;8.90;99.90;;;;;;5088873;28;20418;-85
2021/05/06 13:05:42;;;;;;;3.20;3.00;;;8.80;99.90;;;;;;5063217;28;20425;-86
2021/05/06 13:08:08;;;;;;;3.80;3.50;;;8.60;99.90;;;;;;5098978;28;20428;-86
2021/05/06 13:10:40;;;;;;;5.20;3.00;;;8.50;99.90;;;;;;5077386;28;20437;-85
2021/05/06 13:13:08;;;;;;;4.00;2.80;;;8.50;99.90;;;;;;5106932;27;20221;-86
2021/05/06 13:15:51;;;;;;;3.13;2.93;;;8.70;99.90;;;;;;5143033;27;20435;-86
2021/05/06 13:18:18;;;;;;;5.07;3.13;;;8.70;99.90;;;;;;5097641;28;20545;-86
2021/05/06 13:20:44;;;;;;;3.33;2.73;;;8.60;99.90;;;;;;5120597;27;20418;-86
2021/05/06 13:23:14;;;;;;;4.27;3.00;;;8.60;99.90;;;;;;5142181;27;20432;-86
2021/05/06 13:25:53;;;;;;;3.13;2.60;;;8.50;99.90;;;;;;5142215;27;20419;-86
2021/05/06 13:28:40;;;;;;;4.17;3.77;;;8.70;99.90;;;;;;5101009;28;20414;-86
2021/05/06 13:31:21;;;;;;;3.37;3.07;;;8.70;99.90;;;;;;5112278;28;20472;-86
2021/05/06 13:33:49;;;;;;;2.67;2.47;;;8.50;99.90;;;;;;5124000;27;20457;-86
2021/05/06 13:36:17;;;;;;;3.53;3.23;;;8.50;99.90;;;;;;5140764;27;20411;-86
2021/05/06 13:38:52;;;;;;;4.40;3.40;;;8.50;99.90;;;;;;5134244;27;20419;-86
2021/05/06 13:41:20;;;;;;;7.43;3.67;;;8.50;99.90;;;;;;5141421;27;20406;-86
2021/05/06 13:43:47;;;;;;;3.87;3.17;;;8.40;99.90;;;;;;5122794;27;20447;-86
2021/05/06 13:46:15;;;;;;;4.13;3.17;;;8.50;99.90;;;;;;5128785;27;20414;-85
2021/05/06 13:48:45;;;;;;;3.53;3.20;;;8.40;99.90;;;;;;5132359;27;20418;-85
2021/05/06 13:51:18;;;;;;;3.43;3.10;;;8.60;99.90;;;;;;5120398;27;20427;-87
2021/05/06 13:53:45;;;;;;;3.30;2.97;;;8.80;99.90;;;;;;5084465;28;20429;-84
2021/05/06 13:56:12;;;;;;;3.37;3.17;;;8.60;99.90;;;;;;5144100;27;20432;-86
2021/05/06 13:58:38;;;;;;;6.00;4.00;;;8.70;99.90;;;;;;5144529;27;20486;-84
2021/05/06 14:01:07;;;;;;;6.07;3.37;;;8.60;99.90;;;;;;5126146;27;20497;-86
2021/05/06 14:03:33;;;;;;;4.43;3.73;;;8.60;99.90;;;;;;5066462;28;20598;-83
2021/05/06 14:06:00;;;;;;;7.00;5.03;;;8.60;99.90;;;;;;5062588;28;20430;-86
2021/05/06 14:08:26;;;;;;;15.53;4.23;;;8.30;99.90;;;;;;5062238;28;20441;-86
2021/05/06 14:10:53;;;;;;;6.40;4.47;;;8.50;99.90;;;;;;5061675;28;20449;-85
2021/05/06 14:13:19;;;;;;;4.70;4.13;;;8.60;99.90;;;;;;5077575;28;20428;-86
2021/05/06 14:15:45;;;;;;;4.50;4.10;;;8.50;99.90;;;;;;5061610;28;20460;-85
2021/05/06 14:18:11;;;;;;;10.13;4.40;;;8.50;99.90;;;;;;5059990;28;20426;-85
2021/05/06 14:20:39;;;;;;;7.97;4.83;;;8.80;99.90;;;;;;5059062;28;20426;-85
2021/05/06 14:23:05;;;;;;;3.90;3.53;;;8.70;99.90;;;;;;5047549;28;20464;-85
2021/05/06 14:25:32;;;;;;;4.40;4.00;;;8.60;99.90;;;;;;5098062;28;20397;-85
2021/05/06 14:27:58;;;;;;;5.10;4.60;;;8.30;99.90;;;;;;5098659;28;20397;-84
2021/05/06 14:30:25;;;;;;;5.03;4.53;;;8.50;99.90;;;;;;5098042;28;20451;-85
2021/05/06 14:32:51;;;;;;;11.30;5.67;;;8.30;99.90;;;;;;5065812;28;20221;-85
2021/05/06 14:35:17;;;;;;;5.13;4.30;;;8.30;99.90;;;;;;5132047;27;20455;-84
2021/05/06 14:37:43;;;;;;;6.03;4.67;;;8.30;99.90;;;;;;5142086;27;20407;-85
2021/05/06 14:40:09;;;;;;;5.80;4.70;;;8.50;99.90;;;;;;5136237;27;20244;-85
2021/05/06 14:42:35;;;;;;;7.27;4.60;;;8.90;99.90;;;;;;5138802;27;20165;-84
2021/05/06 14:45:01;;;;;;;8.40;4.27;;;9.00;99.90;;;;;;5112155;28;20466;-85
2021/05/06 14:47:27;;;;;;;6.20;4.97;;;9.30;99.90;;;;;;5139362;27;20169;-84
2021/05/06 14:49:53;;;;;;;4.40;4.00;;;9.30;99.90;;;;;;5084338;28;20479;-83
2021/05/06 14:52:20;;;;;;;5.07;4.27;;;8.90;99.90;;;;;;5137313;28;20166;-84
2021/05/06 14:54:46;;;;;;;7.30;5.70;;;8.90;99.90;;;;;;5139673;28;20457;-84
2021/05/06 14:57:12;;;;;;;9.53;4.50;;;8.90;99.90;;;;;;5140203;27;20399;-84
2021/05/06 14:59:38;;;;;;;5.03;3.77;;;8.70;99.90;;;;;;5135796;28;20407;-84
2021/05/06 15:02:04;;;;;;;6.10;4.37;;;8.40;99.90;;;;;;5136334;28;20406;-84
2021/05/06 15:04:30;;;;;;;4.97;4.60;;;8.40;99.90;;;;;;5135302;28;20442;-84
2021/05/06 15:06:58;;;;;;;5.97;5.33;;;8.70;99.90;;;;;;5143430;28;20204;-84
2021/05/06 15:09:26;;;;;;;5.70;4.63;;;9.00;99.90;;;;;;5089786;28;20527;-84
2021/05/06 15:11:56;;;;;;;5.57;5.03;;;9.10;99.90;;;;;;5100368;28;20404;-84
2021/05/06 15:14:23;;;;;;;7.73;6.70;;;9.30;99.90;;;;;;5081591;28;20451;-84
2021/05/06 15:16:50;;;;;;;7.60;5.93;;;9.30;99.90;;;;;;5092288;28;20403;-85
2021/05/06 15:19:21;;;;;;;5.30;4.77;;;9.40;99.90;;;;;;5095503;28;20361;-87
2021/05/06 15:21:47;;;;;;;7.50;5.13;;;9.10;99.90;;;;;;5127061;28;20795;-86
2021/05/06 15:24:13;;;;;;;8.00;6.00;;;9.00;99.90;;;;;;5145795;28;20428;-85
2021/05/06 15:26:39;;;;;;;6.13;5.03;;;8.80;99.90;;;;;;5142041;28;20552;-84